createdAt,value
2023-03-12T00:00:12.456Z,87.55
2023-03-12T00:01:12.425Z,88.07
2023-03-12T00:02:12.629Z,87.87
2023-03-12T00:03:12.398Z,87.76
2023-03-12T00:04:12.442Z,87.76
2023-03-12T00:05:12.412Z,88.71
2023-03-12T00:06:12.601Z,88.39
2023-03-12T00:07:12.433Z,88.12
2023-03-12T00:08:12.579Z,88.22
2023-03-12T00:09:12.414Z,88.85
2023-03-12T00:10:12.310Z,88.85
2023-03-12T00:11:12.413Z,88.43
2023-03-12T00:12:12.289Z,88.32
2023-03-12T00:13:12.425Z,88.96
2023-03-12T00:14:12.336Z,89.17
2023-03-12T00:15:12.405Z,89.27
2023-03-12T00:16:12.374Z,89.94
2023-03-12T00:17:12.209Z,89.62
2023-03-12T00:18:12.278Z,89.62
2023-03-12T00:19:12.478Z,89.62
2023-03-12T00:20:12.269Z,89.73
2023-03-12T00:21:12.168Z,89.94
2023-03-12T00:22:12.241Z,90.25
2023-03-12T00:23:12.169Z,90.25
2023-03-12T00:24:12.251Z,90.05
2023-03-12T00:25:12.090Z,89.84
2023-03-12T00:26:12.271Z,89.62
2023-03-12T00:27:12.095Z,89.52
2023-03-12T00:28:12.251Z,89.73
2023-03-12T00:29:12.045Z,89.94
2023-03-12T00:30:12.073Z,90.05
2023-03-12T00:31:12.107Z,90.25
2023-03-12T00:32:12.306Z,90.15
2023-03-12T00:33:12.094Z,90.05
2023-03-12T00:34:12.048Z,90.15
2023-03-12T00:35:12.082Z,90.25
2023-03-12T00:36:12.313Z,90.36
2023-03-12T00:37:11.923Z,90.99
2023-03-12T00:38:12.029Z,91.94
2023-03-12T00:39:12.071Z,91.68
2023-03-12T00:40:11.928Z,91.37
2023-03-12T00:41:12.207Z,91.68
2023-03-12T00:42:11.941Z,91.37
2023-03-12T00:43:11.888Z,90.53
2023-03-12T00:44:11.915Z,90.00
2023-03-12T00:45:12.196Z,90.42
2023-03-12T00:46:11.917Z,90.74
2023-03-12T00:47:11.833Z,90.57
2023-03-12T00:48:11.936Z,90.67
2023-03-12T00:49:11.795Z,90.95
2023-03-12T00:50:11.942Z,91.41
2023-03-12T00:51:11.868Z,91.41
2023-03-12T00:52:11.920Z,91.16
2023-03-12T00:53:11.761Z,90.84
2023-03-12T00:54:11.931Z,90.67
2023-03-12T00:55:11.770Z,90.57
2023-03-12T00:56:12.038Z,90.32
2023-03-12T00:57:11.781Z,90.32
2023-03-12T00:58:11.939Z,90.53
2023-03-12T00:59:11.808Z,90.74
2023-03-12T01:00:11.681Z,90.95
2023-03-12T10:52:55.275Z,65.16
2023-03-12T10:53:56.269Z,66.40
2023-03-12T10:54:56.395Z,66.81
2023-03-12T10:55:56.287Z,67.53
2023-03-12T10:56:56.411Z,67.02
2023-03-12T10:57:56.223Z,67.97
2023-03-12T10:58:56.408Z,68.52
2023-03-12T10:59:56.239Z,69.24
2023-03-12T11:00:56.361Z,70.34
2023-03-12T11:01:56.293Z,69.42
2023-03-12T11:02:56.939Z,70.45
2023-03-12T11:03:56.177Z,68.87
2023-03-12T11:04:56.061Z,68.22
2023-03-12T11:05:56.104Z,67.88
2023-03-12T11:06:56.090Z,69.49
2023-03-12T11:07:56.054Z,68.74
2023-03-12T11:09:06.431Z,66.82
2023-03-12T11:09:56.086Z,65.28
2023-03-12T11:10:55.974Z,66.82
2023-03-12T11:11:55.955Z,66.85
2023-03-12T11:12:56.094Z,67.36
2023-03-12T11:13:55.939Z,67.94
2023-03-12T11:14:56.094Z,68.56
2023-03-12T11:15:56.092Z,68.77
2023-03-12T11:16:55.909Z,67.71
2023-03-12T11:17:55.919Z,68.53
2023-03-12T11:18:55.878Z,67.40
2023-03-12T11:19:55.863Z,67.71
2023-03-12T11:20:56.090Z,68.32
2023-03-12T11:21:55.916Z,67.81
2023-03-12T11:22:56.090Z,68.53
2023-03-12T11:23:55.813Z,67.74
2023-03-12T11:24:55.824Z,69.07
2023-03-12T11:25:55.764Z,70.21
2023-03-12T11:26:55.809Z,70.00
2023-03-12T11:27:56.132Z,70.10
2023-03-12T11:28:55.783Z,69.07
2023-03-12T11:29:55.892Z,68.90
2023-03-12T11:30:55.904Z,69.62
2023-03-12T11:31:55.853Z,70.24
2023-03-12T11:32:55.942Z,70.42
2023-03-12T11:33:55.698Z,69.90
2023-03-12T11:34:55.678Z,68.87
2023-03-12T11:35:55.665Z,68.08
2023-03-12T11:36:55.851Z,69.42
2023-03-12T11:37:55.576Z,70.04
2023-03-12T11:38:55.566Z,69.59
2023-03-12T11:39:55.669Z,69.90
2023-03-12T11:40:55.635Z,70.31
2023-03-12T11:41:55.674Z,70.62
2023-03-12T11:42:55.556Z,71.34
2023-03-12T11:43:55.585Z,72.09
2023-03-12T11:44:55.580Z,72.99
2023-03-12T11:45:55.464Z,71.65
2023-03-12T11:46:55.686Z,71.55
2023-03-12T11:47:55.773Z,72.99
2023-03-12T11:48:55.490Z,72.20
2023-03-12T11:49:55.488Z,73.57
2023-03-12T11:50:55.452Z,75.53
2023-03-12T11:51:55.469Z,75.90
2023-03-12T11:52:55.451Z,74.88
2023-03-12T11:53:55.462Z,73.95
2023-03-12T11:54:55.595Z,74.16
2023-03-12T11:55:55.369Z,74.67
2023-03-12T11:56:55.851Z,74.98
2023-03-12T11:57:55.401Z,73.64
2023-03-12T11:58:55.444Z,74.98
2023-03-12T11:59:55.398Z,73.26
2023-03-12T12:00:55.427Z,73.47
2023-03-12T12:01:55.411Z,74.84
2023-03-12T12:02:55.336Z,75.18
2023-03-12T12:03:55.359Z,74.67
2023-03-12T12:04:55.307Z,75.29
2023-03-12T12:05:55.346Z,77.42
2023-03-12T12:06:55.219Z,76.70
2023-03-12T12:07:55.269Z,76.46
2023-03-12T12:08:55.196Z,76.97
2023-03-12T12:09:55.156Z,76.56
2023-03-12T12:10:55.173Z,76.21
2023-03-12T12:11:55.211Z,74.71
2023-03-12T12:12:55.142Z,76.42
2023-03-12T12:13:55.213Z,75.29
2023-03-12T12:14:55.136Z,75.60
2023-03-12T12:15:55.113Z,75.60
2023-03-12T12:16:55.135Z,75.67
2023-03-12T12:17:55.329Z,75.05
2023-03-12T12:18:55.156Z,75.56
2023-03-12T12:19:55.325Z,74.84
2023-03-12T12:20:55.025Z,74.91
2023-03-12T12:21:55.330Z,73.47
2023-03-12T12:22:55.094Z,72.75
2023-03-12T12:23:55.075Z,74.19
2023-03-12T12:24:55.073Z,74.77
2023-03-12T12:25:55.692Z,74.46
2023-03-12T12:26:55.340Z,73.02
2023-03-12T12:27:55.251Z,72.75
2023-03-12T12:28:55.237Z,73.47
2023-03-12T12:29:55.087Z,73.36
2023-03-12T12:30:55.122Z,73.98
2023-03-12T12:31:55.322Z,72.92
2023-03-12T12:32:55.350Z,73.33
2023-03-12T12:33:55.143Z,72.92
2023-03-12T12:34:55.332Z,72.47
2023-03-12T12:35:54.899Z,71.55
2023-03-12T12:36:54.769Z,72.24
2023-03-12T12:37:54.809Z,70.11
2023-03-12T12:38:54.766Z,70.86
2023-03-12T12:39:54.799Z,72.34
2023-03-12T12:40:55.056Z,74.70
2023-03-12T12:41:54.769Z,74.80
2023-03-12T12:42:54.729Z,74.50
2023-03-12T12:43:54.774Z,74.50
2023-03-12T12:44:54.700Z,76.21
2023-03-12T12:45:54.727Z,75.90
2023-03-12T12:46:54.799Z,73.54
2023-03-12T12:47:54.706Z,74.26
2023-03-12T12:48:54.719Z,74.36
2023-03-12T12:49:54.685Z,74.67
2023-03-12T12:50:54.685Z,75.49
2023-03-12T12:51:54.603Z,75.12
2023-03-12T12:52:54.659Z,74.95
2023-03-12T12:53:54.594Z,73.61
2023-03-12T12:54:54.591Z,74.12
2023-03-12T12:55:54.557Z,75.97
2023-03-12T12:56:54.604Z,73.30
2023-03-12T12:57:54.625Z,72.44
2023-03-12T12:58:54.551Z,72.24
2023-03-12T12:59:54.623Z,74.08
2023-03-12T13:00:54.553Z,74.87
2023-03-12T13:01:54.469Z,74.63
2023-03-12T13:02:54.496Z,73.09
2023-03-12T13:03:54.528Z,73.61
2023-03-12T13:04:54.498Z,73.50
2023-03-12T13:05:54.826Z,73.44
2023-03-12T13:06:54.386Z,73.19
2023-03-12T13:07:54.420Z,71.66
2023-03-12T13:08:54.432Z,71.45
2023-03-12T13:09:54.366Z,72.78
2023-03-12T13:11:02.083Z,73.61
2023-03-12T13:11:54.382Z,72.17
2023-03-12T13:12:54.348Z,74.02
2023-03-12T13:13:54.379Z,74.74
2023-03-12T13:14:54.312Z,74.33
2023-03-12T13:15:54.342Z,74.05
2023-03-12T13:16:54.313Z,73.95
2023-03-12T13:17:54.295Z,71.51
2023-03-12T13:18:54.399Z,73.47
2023-03-12T13:20:00.851Z,73.50
2023-03-12T13:20:54.262Z,74.22
2023-03-12T13:21:54.247Z,73.13
2023-03-12T13:22:54.268Z,73.71
2023-03-12T13:23:54.173Z,73.91
2023-03-12T13:24:54.160Z,72.37
2023-03-12T13:25:54.335Z,71.55
2023-03-12T13:26:54.197Z,71.31
2023-03-12T13:27:54.344Z,73.57
2023-03-12T13:29:05.940Z,73.78
2023-03-12T13:29:54.070Z,73.57
2023-03-12T13:30:54.209Z,74.50
2023-03-12T13:31:54.062Z,73.61
2023-03-12T13:32:54.249Z,73.98
2023-03-12T13:33:54.115Z,75.01
2023-03-12T13:34:54.041Z,75.42
2023-03-12T13:35:54.063Z,74.70
2023-03-12T13:36:54.039Z,74.26
2023-03-12T13:37:54.102Z,73.64
2023-03-12T13:38:54.182Z,75.59
2023-03-12T13:39:54.103Z,74.67
2023-03-12T13:40:54.147Z,76.21
2023-03-12T13:41:54.010Z,76.42
2023-03-12T13:42:54.173Z,76.62
2023-03-12T13:43:54.066Z,78.06
2023-03-12T13:44:53.936Z,76.14
2023-03-12T13:45:54.051Z,75.73
2023-03-12T13:46:53.865Z,75.22
2023-03-12T13:47:53.843Z,76.04
2023-03-12T13:48:53.857Z,75.52
2023-03-12T13:49:54.026Z,74.60
2023-03-12T13:50:53.907Z,75.63
2023-03-12T13:51:53.768Z,75.94
2023-03-12T13:52:53.862Z,75.22
2023-03-12T13:53:53.782Z,75.35
2023-03-12T13:54:53.840Z,75.97
2023-03-12T13:55:54.070Z,75.15
2023-03-12T13:56:53.730Z,75.35
2023-03-12T13:57:54.024Z,76.07
2023-03-12T13:58:53.838Z,77.42
2023-03-12T13:59:54.020Z,76.35
2023-03-12T14:00:53.665Z,76.70
2023-03-12T14:01:53.757Z,75.05
2023-03-12T14:02:53.682Z,74.74
2023-03-12T14:03:53.663Z,75.56
2023-03-12T14:04:53.852Z,74.53
2023-03-12T14:05:53.674Z,73.91
2023-03-12T14:06:53.563Z,74.05
2023-03-12T14:07:53.753Z,74.80
2023-03-12T14:08:53.543Z,75.01
2023-03-12T14:09:53.728Z,75.22
2023-03-12T14:10:53.530Z,75.56
2023-03-12T14:11:53.709Z,75.77
2023-03-12T14:12:53.549Z,76.90
2023-03-12T14:13:53.764Z,77.94
2023-03-12T14:14:53.588Z,77.52
2023-03-12T14:15:53.714Z,78.41
2023-03-12T14:16:53.530Z,79.03
2023-03-12T14:17:53.433Z,78.62
2023-03-12T14:18:53.463Z,78.31
2023-03-12T14:19:53.434Z,78.62
2023-03-12T14:20:53.548Z,78.11
2023-03-12T14:21:53.433Z,76.97
2023-03-12T14:22:53.587Z,78.31
2023-03-12T14:23:53.375Z,78.00
2023-03-12T14:24:53.586Z,78.04
2023-03-12T14:25:53.376Z,78.52
2023-03-12T14:26:53.627Z,78.41
2023-03-12T14:27:53.390Z,78.34
2023-03-12T14:28:53.310Z,79.27
2023-03-12T14:29:53.380Z,80.20
2023-03-12T14:30:53.359Z,79.90
2023-03-12T14:31:53.284Z,80.72
2023-03-12T14:32:53.383Z,79.58
2023-03-12T14:33:53.209Z,79.38
2023-03-12T14:34:53.248Z,80.51
2023-03-12T14:35:53.254Z,79.69
2023-03-12T14:36:53.213Z,81.03
2023-03-12T14:37:53.196Z,84.53
2023-03-12T14:38:53.280Z,82.98
2023-03-12T14:39:53.375Z,84.43
2023-03-12T14:40:53.220Z,83.03
2023-03-12T14:41:53.161Z,84.57
2023-03-12T14:42:53.094Z,84.47
2023-03-12T14:43:53.194Z,84.47
2023-03-12T14:44:53.089Z,84.99
2023-03-12T14:45:53.089Z,84.88
2023-03-12T14:46:53.279Z,84.92
2023-03-12T14:47:53.070Z,84.92
2023-03-12T14:48:53.082Z,85.44
2023-03-12T14:49:53.081Z,86.16
2023-03-12T14:50:53.211Z,86.47
2023-03-12T14:51:53.019Z,86.88
2023-03-12T14:52:52.955Z,88.12
2023-03-12T14:53:53.163Z,88.06
2023-03-12T14:54:53.022Z,88.32
2023-03-12T14:55:53.047Z,88.43
2023-03-12T14:56:52.944Z,90.33
2023-03-12T14:57:53.063Z,91.26
2023-03-12T14:58:52.871Z,91.36
2023-03-12T14:59:52.830Z,91.98
2023-03-12T15:00:52.944Z,92.19
2023-03-12T15:01:52.961Z,92.19
2023-03-12T15:02:52.870Z,90.58
2023-03-12T15:03:52.880Z,92.13
2023-03-12T15:04:54.687Z,92.54
2023-03-12T15:05:52.796Z,92.48
2023-03-12T15:06:52.973Z,94.03
2023-03-12T15:07:52.788Z,94.03
2023-03-12T15:08:52.920Z,94.38
2023-03-12T15:09:52.734Z,95.21
2023-03-12T15:10:52.993Z,95.94
2023-03-12T15:11:52.778Z,96.55
2023-03-12T15:12:52.721Z,96.76
2023-03-12T15:13:52.752Z,97.49
2023-03-12T15:14:52.673Z,97.33
2023-03-12T15:15:52.814Z,96.92
2023-03-12T15:16:52.687Z,97.02
2023-03-12T15:17:52.712Z,97.02
2023-03-12T15:18:52.659Z,97.33
2023-03-12T15:19:52.709Z,97.44
2023-03-12T15:20:52.632Z,97.02
2023-03-12T15:21:52.572Z,97.02
2023-03-12T15:22:52.632Z,97.44
2023-03-12T15:23:52.577Z,97.75
2023-03-12T15:24:52.607Z,98.06
2023-03-12T15:25:52.518Z,98.00
2023-03-12T15:26:52.494Z,97.69
2023-03-12T15:27:52.482Z,97.59
2023-03-12T15:28:52.503Z,97.69
